.
WxDataArchive / Data Records for 2012-03-16
2012-03-15 March 2012 2012-03-17

Data Records for Friday, 16 March 2012

Time	Temp	Chill	HIndex	Humid	Dewpt	 Wind 	HiWind	WindDir	Rain 	Barom 
-----	----	-----	------	-----	-----	------	------	-------	-----	----- 
00:00	66.6	66.6	66.6	64	54.0	1	4	248	0.00	30.031 
00:05	66.6	66.6	66.6	65	54.5	1	4	248	0.00	30.031 
00:10	66.3	66.3	66.3	64	53.7	1	6	248	0.00	30.031 
00:15	66.1	66.1	66.1	64	53.6	2	6	248	0.00	30.021 
00:20	66.1	66.1	66.1	64	53.6	2	6	248	0.00	30.021 
00:25	66.0	66.0	66.0	65	53.9	1	7	248	0.00	30.021 
00:30	65.8	65.8	65.8	65	53.7	1	4	248	0.00	30.023 
00:35	65.6	65.6	65.6	65	53.5	1	5	248	0.00	30.023 
00:40	65.5	65.5	65.5	66	53.8	1	3	270	0.00	30.023 
00:45	65.3	65.3	65.3	69	54.9	1	4	248	0.01	30.025 
00:50	64.5	64.5	64.5	73	55.6	1	5	248	0.02	30.025 
00:55	63.5	63.5	63.5	76	55.8	0	3	248	0.00	30.025 
01:00	62.7	62.7	62.7	77	55.4	1	4	248	0.00	30.022 
01:05	62.4	62.4	62.4	78	55.4	2	5	248	0.00	30.022 
01:10	62.3	62.3	62.3	78	55.3	1	4	248	0.00	30.022 
01:15	62.3	62.3	62.3	78	55.3	1	4	225	0.00	30.022 
01:20	62.1	62.1	62.1	77	54.8	1	2	248	0.00	30.022 
01:25	62.1	62.1	62.1	77	54.8	1	4	248	0.00	30.022 
01:30	62.0	62.0	62.0	77	54.7	1	3	248	0.00	30.026 
01:35	62.1	62.1	62.1	77	54.8	1	5	248	0.00	30.026 
01:40	62.1	62.1	62.1	77	54.8	1	4	248	0.00	30.026 
01:45	62.1	62.1	62.1	77	54.8	1	6	248	0.00	30.021 
01:50	62.0	62.0	62.0	77	54.7	1	3	248	0.00	30.021 
01:55	61.8	61.8	61.8	77	54.5	1	2	248	0.00	30.021 
02:00	61.8	61.8	61.8	77	54.5	0	3	248	0.00	30.019 
02:05	61.6	61.6	61.6	78	54.7	0	3	248	0.00	30.019 
02:10	61.5	61.5	61.5	78	54.6	0	1	248	0.00	30.019 
02:15	61.2	61.2	61.2	79	54.6	0	1	248	0.00	30.021 
02:20	60.9	60.9	60.9	79	54.3	0	1	248	0.00	30.021 
02:25	60.7	60.7	60.7	80	54.5	0	1	248	0.00	30.021 
02:30	60.5	60.5	60.5	80	54.3	0	1	248	0.00	30.034 
02:35	60.4	60.4	60.4	80	54.2	0	1	248	0.00	30.034 
02:40	60.4	60.4	60.4	81	54.5	1	3	248	0.00	30.034 
02:45	60.4	60.4	60.4	81	54.5	0	3	248	0.00	30.043 
02:50	60.4	60.4	60.4	81	54.5	0	2	248	0.00	30.043 
02:55	60.2	60.2	60.2	81	54.3	1	3	248	0.00	30.043 
03:00	60.2	60.2	60.2	81	54.3	1	3	248	0.00	30.043 
03:05	60.1	60.1	60.1	81	54.2	1	4	248	0.00	30.043 
03:10	60.1	60.1	60.1	81	54.2	1	5	270	0.00	30.043 
03:15	60.1	60.1	60.1	81	54.2	1	3	248	0.00	30.045 
03:20	59.9	59.9	59.9	81	54.1	1	3	248	0.00	30.045 
03:25	59.8	59.8	59.8	82	54.3	1	3	248	0.00	30.045 
03:30	59.6	59.6	59.6	82	54.1	1	3	248	0.00	30.049 
03:35	59.6	59.6	59.6	82	54.1	1	4	248	0.00	30.049 
03:40	59.5	59.5	59.5	83	54.3	1	4	248	0.00	30.049 
03:45	59.5	59.5	59.5	83	54.3	0	2	248	0.00	30.039 
03:50	59.3	59.3	59.3	83	54.1	0	2	248	0.00	30.039 
03:55	59.3	59.3	59.3	84	54.5	1	4	248	0.00	30.039 
04:00	59.3	59.3	59.3	84	54.5	1	3	248	0.00	30.033 
04:05	59.2	59.2	59.2	84	54.4	1	3	248	0.00	30.033 
04:10	59.2	59.2	59.2	84	54.4	1	2	248	0.00	30.033 
04:15	59.2	59.2	59.2	85	54.7	1	3	248	0.00	30.028 
04:20	59.0	59.0	59.0	85	54.5	1	4	248	0.00	30.028 
04:25	59.0	59.0	59.0	85	54.5	1	2	248	0.00	30.028 
04:30	59.0	59.0	59.0	86	54.8	1	3	248	0.00	30.026 
04:35	59.0	59.0	59.0	86	54.8	1	4	225	0.00	30.026 
04:40	59.0	59.0	59.0	86	54.8	1	3	225	0.00	30.026 
04:45	59.0	59.0	59.0	86	54.8	0	4	225	0.00	30.030 
04:50	58.9	58.9	58.9	86	54.7	0	3	248	0.00	30.030 
04:55	58.9	58.9	58.9	87	55.0	1	3	248	0.00	30.030 
05:00	58.9	58.9	58.9	87	55.0	0	2	248	0.00	30.036 
05:05	58.9	58.9	58.9	87	55.0	1	3	248	0.00	30.036 
05:10	58.7	58.7	58.7	87	54.8	0	2	248	0.00	30.036 
05:15	58.7	58.7	58.7	87	54.8	0	2	248	0.00	30.047 
05:20	58.7	58.7	58.7	87	54.8	1	3	248	0.00	30.047 
05:25	58.7	58.7	58.7	88	55.2	1	3	248	0.00	30.047 
05:30	58.7	58.7	58.7	88	55.2	1	3	248	0.00	30.048 
05:35	58.6	58.6	58.6	88	55.1	1	4	248	0.00	30.048 
05:40	58.4	58.4	58.4	88	54.9	0	2	248	0.00	30.048 
05:45	58.4	58.4	58.4	88	54.9	1	4	248	0.00	30.044 
05:50	58.3	58.3	58.3	88	54.8	1	4	248	0.00	30.044 
05:55	58.1	58.1	58.1	88	54.6	1	4	248	0.00	30.044 
06:00	58.1	58.1	58.1	88	54.6	1	3	248	0.00	30.042 
06:05	58.0	58.0	58.0	88	54.5	1	5	248	0.00	30.042 
06:10	58.0	58.0	58.0	89	54.8	1	3	248	0.00	30.042 
06:15	58.0	58.0	58.0	89	54.8	1	3	248	0.00	30.042 
06:20	58.0	58.0	58.0	89	54.8	1	4	248	0.00	30.042 
06:25	57.8	57.8	57.8	89	54.6	0	2	248	0.00	30.042 
06:30	57.6	57.6	57.6	89	54.4	0	1	248	0.00	30.053 
06:35	57.6	57.6	57.6	89	54.4	0	1	248	0.00	30.053 
06:40	57.5	57.5	57.5	89	54.3	0	2	248	0.00	30.053 
06:45	57.3	57.3	57.3	89	54.1	0	2	248	0.00	30.054 
06:50	57.3	57.3	57.3	89	54.1	0	2	248	0.00	30.054 
06:55	57.3	57.3	57.3	89	54.1	0	1	248	0.00	30.054 
07:00	57.2	57.2	57.2	90	54.3	0	1	248	0.00	30.064 
07:05	57.2	57.2	57.2	90	54.3	0	1	248	0.00	30.064 
07:10	57.0	57.0	57.0	90	54.1	0	1	248	0.00	30.064 
07:15	56.7	56.7	56.7	90	53.8	0	1	248	0.00	30.070 
07:20	56.6	56.6	56.6	90	53.7	0	0	---	0.00	30.070 
07:25	56.5	56.5	56.5	90	53.6	0	0	---	0.00	30.070 
07:30	56.3	56.3	56.3	90	53.4	0	0	---	0.00	30.067 
07:35	56.2	56.2	56.2	90	53.3	0	1	248	0.00	30.067 
07:40	56.0	56.0	56.0	91	53.4	0	0	---	0.00	30.067 
07:45	55.7	55.7	55.7	91	53.1	0	0	---	0.00	30.074 
07:50	55.7	55.7	55.7	91	53.1	0	0	---	0.00	30.074 
07:55	55.6	55.6	55.6	91	53.0	0	0	---	0.00	30.074 
08:00	55.6	55.6	55.6	91	53.0	0	0	---	0.00	30.079 
08:05	55.6	55.6	55.6	92	53.3	0	0	---	0.00	30.079 
08:10	55.4	55.4	55.4	92	53.1	0	0	---	0.00	30.079 
08:15	55.3	55.3	55.3	92	53.0	0	0	---	0.00	30.080 
08:20	55.1	55.1	55.1	92	52.8	0	0	---	0.00	30.080 
08:25	55.1	55.1	55.1	92	52.8	0	0	---	0.00	30.080 
08:30	55.3	55.3	55.3	92	53.0	0	1	248	0.00	30.083 
08:35	55.3	55.3	55.3	93	53.3	0	0	---	0.00	30.083 
08:40	55.3	55.3	55.3	93	53.3	0	0	---	0.00	30.083 
08:45	55.6	55.6	55.6	93	53.6	0	1	248	0.00	30.088 
08:50	55.7	55.7	55.7	93	53.7	0	1	248	0.00	30.088 
08:55	56.0	56.0	56.0	93	54.0	0	1	248	0.00	30.088 
09:00	56.2	56.2	56.2	93	54.2	0	2	248	0.00	30.089 
09:05	56.5	56.5	56.5	93	54.5	0	3	135	0.00	30.089 
09:10	56.5	56.5	56.5	93	54.5	0	3	135	0.00	30.089 
09:15	56.6	56.6	56.6	92	54.3	0	2	135	0.00	30.092 
09:20	56.7	56.7	56.7	92	54.4	0	2	112	0.00	30.092 
09:25	57.0	57.0	57.0	92	54.7	0	2	112	0.00	30.092 
09:30	57.5	57.5	57.5	92	55.2	1	3	90	0.00	30.092 
09:35	58.0	58.0	58.0	92	55.7	0	1	90	0.00	30.092 
09:40	58.3	58.3	58.3	91	55.7	0	1	202	0.00	30.092 
09:45	58.7	58.7	58.7	90	55.8	1	3	112	0.00	30.101 
09:50	58.9	58.9	58.9	89	55.7	0	3	270	0.00	30.101 
09:55	59.0	59.0	59.0	89	55.8	1	4	270	0.00	30.101 
10:00	59.3	59.3	59.3	88	55.7	1	3	248	0.00	30.105 
10:05	59.6	59.6	59.6	88	56.0	1	4	248	0.00	30.105 
10:10	60.1	60.1	60.1	87	56.2	1	3	248	0.00	30.105 
10:15	60.4	60.4	60.4	86	56.2	1	4	248	0.00	30.105 
10:20	60.9	60.9	60.9	85	56.4	1	3	248	0.00	30.105 
10:25	61.3	61.3	61.3	84	56.4	1	4	248	0.00	30.105 
10:30	61.6	61.6	61.6	83	56.4	1	3	248	0.00	30.106 
10:35	62.1	62.1	62.1	82	56.5	1	4	248	0.00	30.106 
10:40	62.4	62.4	62.4	81	56.5	1	4	248	0.00	30.106 
10:45	62.6	62.6	62.6	80	56.3	1	4	248	0.00	30.105 
10:50	62.6	62.6	62.6	80	56.3	1	3	248	0.00	30.105 
10:55	62.7	62.7	62.7	80	56.4	0	2	248	0.00	30.105 
11:00	62.7	62.7	62.7	79	56.1	1	2	225	0.00	30.106 
11:05	62.9	62.9	62.9	79	56.3	1	5	225	0.00	30.106 
11:10	63.4	63.4	63.4	78	56.4	1	3	248	0.00	30.106 
11:15	63.9	63.9	63.9	78	56.9	1	3	248	0.00	30.106 
11:20	64.3	64.3	64.3	77	56.9	1	3	248	0.00	30.106 
11:25	64.7	64.7	64.7	76	57.0	1	3	248	0.00	30.106 
11:30	65.2	65.2	65.2	76	57.4	0	2	248	0.00	30.103 
11:35	65.6	65.6	65.6	75	57.5	0	3	248	0.00	30.103 
11:40	66.0	66.0	66.0	74	57.5	0	2	248	0.00	30.103 
11:45	66.4	66.4	66.4	73	57.5	1	2	248	0.00	30.103 
11:50	67.1	67.1	67.1	73	58.1	0	1	248	0.00	30.103 
11:55	67.6	67.6	67.6	72	58.2	0	2	248	0.00	30.103 
12:00	68.3	68.3	68.3	70	58.1	1	4	90	0.00	30.101 
12:05	68.4	68.4	68.4	69	57.8	0	2	90	0.00	30.101 
12:10	68.6	68.6	68.6	69	58.0	1	3	90	0.00	30.101 
12:15	68.9	68.9	68.9	68	57.9	0	2	90	0.00	30.099 
12:20	68.9	68.9	68.9	67	57.5	1	2	90	0.00	30.099 
12:25	69.4	69.4	69.4	67	58.0	0	3	292	0.00	30.099 
12:30	69.9	69.9	69.9	66	58.0	1	3	112	0.00	30.096 
12:35	70.3	70.3	70.3	67	58.8	0	3	112	0.00	30.096 
12:40	70.8	70.8	70.8	66	58.9	0	2	270	0.00	30.096 
12:45	70.9	70.9	70.9	64	58.1	1	2	270	0.00	30.089 
12:50	71.1	71.1	71.1	63	57.9	1	4	112	0.00	30.089 
12:55	71.3	71.3	71.3	65	58.9	0	4	112	0.00	30.089 
13:00	71.8	71.8	71.8	65	59.4	0	3	112	0.00	30.086 
13:05	72.0	72.0	72.0	61	57.8	1	4	45	0.00	30.086 
13:10	72.3	72.3	72.3	62	58.5	0	3	45	0.00	30.086 
13:15	72.5	72.5	72.5	62	58.7	1	4	248	0.00	30.084 
13:20	72.7	72.7	72.7	59	57.5	2	6	248	0.00	30.084 
13:25	72.7	72.7	72.7	59	57.5	1	4	248	0.00	30.084 
13:30	72.8	72.8	72.8	58	57.1	2	5	248	0.00	30.080 
13:35	72.8	72.8	72.8	58	57.1	1	3	248	0.00	30.080 
13:40	73.2	73.2	73.2	58	57.5	1	5	248	0.00	30.080 
13:45	73.7	73.7	73.7	60	58.9	0	3	90	0.00	30.074 
13:50	74.0	74.0	74.0	58	58.3	1	5	90	0.00	30.074 
13:55	74.2	74.2	74.2	58	58.5	1	3	112	0.00	30.074 
14:00	74.4	74.4	74.4	57	58.2	2	4	248	0.00	30.068 
14:05	74.6	74.6	74.6	57	58.3	1	2	248	0.00	30.068 
14:10	74.9	74.9	74.9	56	58.1	2	6	248	0.00	30.068 
14:15	74.9	74.9	74.9	55	57.6	2	6	248	0.00	30.068 
14:20	74.9	74.9	74.9	54	57.1	1	4	248	0.00	30.068 
14:25	75.1	75.1	77.6	56	58.3	0	2	248	0.00	30.068 
14:30	75.1	75.1	77.6	54	57.3	3	5	248	0.00	30.062 
14:35	75.3	75.3	77.7	54	57.5	1	2	248	0.00	30.062 
14:40	75.4	75.4	77.7	55	58.1	1	4	68	0.00	30.062 
14:45	75.6	75.6	77.8	55	58.3	1	6	248	0.00	30.053 
14:50	76.0	76.0	78.1	55	58.6	1	3	158	0.00	30.053 
14:55	76.5	76.5	78.4	54	58.6	0	2	158	0.00	30.053 
15:00	76.5	76.5	78.4	52	57.5	2	5	270	0.00	30.052 
15:05	76.3	76.3	78.2	52	57.4	1	6	270	0.00	30.052 
15:10	76.5	76.5	78.4	53	58.1	1	6	270	0.00	30.052 
15:15	76.7	76.7	78.5	52	57.7	0	3	248	0.00	30.051 
15:20	77.0	77.0	78.7	52	58.0	0	2	112	0.00	30.051 
15:25	77.2	77.2	78.8	53	58.7	1	3	112	0.00	30.051 
15:30	77.2	77.2	78.7	51	57.6	2	4	112	0.00	30.046 
15:35	77.0	77.0	78.7	52	58.0	1	3	135	0.00	30.046 
15:40	77.2	77.2	78.8	53	58.7	1	3	135	0.00	30.046 
15:45	77.2	77.2	78.8	54	59.2	1	4	68	0.00	30.045 
15:50	77.6	77.6	79.1	53	59.1	1	3	270	0.00	30.045 
15:55	77.7	77.7	79.1	51	58.1	0	2	270	0.00	30.045 
16:00	77.6	77.6	79.0	51	58.0	1	3	270	0.00	30.046 
16:05	77.6	77.6	79.0	52	58.6	1	5	248	0.00	30.046 
16:10	77.6	77.6	79.0	52	58.6	1	4	45	0.00	30.046 
16:15	77.6	77.6	79.0	51	58.0	1	4	90	0.00	30.046 
16:20	77.6	77.6	78.9	49	56.9	1	4	248	0.00	30.046 
16:25	77.6	77.6	79.0	51	58.0	1	5	248	0.00	30.046 
16:30	77.4	77.4	78.9	51	57.8	2	5	112	0.00	30.046 
16:35	77.2	77.2	78.7	51	57.6	1	4	90	0.00	30.046 
16:40	77.2	77.2	78.7	51	57.6	1	4	112	0.00	30.046 
16:45	77.0	77.0	78.6	51	57.5	1	5	248	0.00	30.045 
16:50	77.0	77.0	78.6	51	57.5	1	5	248	0.00	30.045 
16:55	77.0	77.0	78.6	50	56.9	1	4	248	0.00	30.045 
17:00	77.2	77.2	78.7	51	57.6	1	2	270	0.00	30.040 
17:05	77.2	77.2	78.8	52	58.2	1	3	0	0.00	30.040 
17:10	77.4	77.4	78.8	50	57.3	1	4	248	0.00	30.040 
17:15	77.6	77.6	79.0	50	57.5	1	5	248	0.00	30.039 
17:20	77.6	77.6	79.0	51	58.0	1	5	112	0.00	30.039 
17:25	77.4	77.4	78.9	51	57.8	1	3	0	0.00	30.039 
17:30	77.4	77.4	78.9	51	57.8	0	2	0	0.00	30.040 
17:35	77.4	77.4	78.9	52	58.4	0	4	90	0.00	30.040 
17:40	77.2	77.2	78.7	51	57.6	0	2	112	0.00	30.040 
17:45	77.2	77.2	78.7	50	57.1	1	5	248	0.00	30.039 
17:50	77.2	77.2	78.7	51	57.6	1	4	112	0.00	30.039 
17:55	77.0	77.0	78.6	51	57.5	1	3	45	0.00	30.039 
18:00	76.8	76.8	78.5	50	56.7	1	3	270	0.00	30.039 
18:05	76.3	76.3	78.2	52	57.4	0	2	112	0.00	30.039 
18:10	76.1	76.1	78.1	52	57.2	1	3	112	0.00	30.039 
18:15	76.1	76.1	78.1	52	57.2	0	2	112	0.00	30.042 
18:20	76.1	76.1	78.1	52	57.2	1	5	112	0.00	30.042 
18:25	76.1	76.1	78.1	51	56.6	1	4	112	0.00	30.042 
18:30	76.1	76.1	78.1	52	57.2	1	3	112	0.00	30.043 
18:35	76.0	76.0	78.1	52	57.1	0	1	112	0.00	30.043 
18:40	75.8	75.8	78.0	51	56.4	1	5	112	0.00	30.043 
18:45	75.6	75.6	77.9	51	56.2	1	4	90	0.00	30.045 
18:50	75.4	75.4	77.8	52	56.5	0	2	90	0.00	30.045 
18:55	75.3	75.3	77.7	53	57.0	0	1	90	0.00	30.045 
19:00	75.1	75.1	77.6	53	56.8	0	3	90	0.00	30.049 
19:05	74.7	74.7	74.7	54	56.9	0	2	90	0.00	30.049 
19:10	74.6	74.6	74.6	54	56.8	0	3	90	0.00	30.049 
19:15	74.2	74.2	74.2	54	56.5	0	1	270	0.00	30.055 
19:20	73.9	73.9	73.9	55	56.7	0	1	270	0.00	30.055 
19:25	73.7	73.7	73.7	55	56.5	0	2	270	0.00	30.055 
19:30	73.3	73.3	73.3	56	56.6	0	1	270	0.00	30.057 
19:35	73.0	73.0	73.0	56	56.4	0	1	270	0.00	30.057 
19:40	72.8	72.8	72.8	56	56.2	0	1	270	0.00	30.057 
19:45	72.7	72.7	72.7	56	56.1	0	1	270	0.00	30.061 
19:50	72.5	72.5	72.5	57	56.4	0	1	270	0.00	30.061 
19:55	72.1	72.1	72.1	57	56.0	0	0	---	0.00	30.061 
20:00	71.8	71.8	71.8	58	56.2	0	0	---	0.00	30.063 
20:05	71.5	71.5	71.5	58	55.9	0	0	---	0.00	30.063 
20:10	71.1	71.1	71.1	59	56.0	0	0	---	0.00	30.063 
20:15	70.9	70.9	70.9	59	55.8	0	0	---	0.00	30.069 
20:20	70.6	70.6	70.6	60	56.0	0	0	---	0.00	30.069 
20:25	70.3	70.3	70.3	61	56.2	0	0	---	0.00	30.069 
20:30	69.9	69.9	69.9	61	55.8	0	0	---	0.00	30.074 
20:35	69.4	69.4	69.4	63	56.2	0	0	---	0.00	30.074 
20:40	68.9	68.9	68.9	63	55.8	0	0	---	0.00	30.074 
20:45	68.4	68.4	68.4	65	56.2	0	0	---	0.00	30.078 
20:50	67.9	67.9	67.9	65	55.7	0	0	---	0.00	30.078 
20:55	67.4	67.4	67.4	66	55.6	0	0	---	0.00	30.078 
21:00	67.1	67.1	67.1	67	55.8	0	0	---	0.00	30.084 
21:05	66.6	66.6	66.6	67	55.3	0	0	---	0.00	30.084 
21:10	66.3	66.3	66.3	68	55.4	0	0	---	0.00	30.084 
21:15	65.8	65.8	65.8	69	55.3	0	0	---	0.00	30.084 
21:20	65.6	65.6	65.6	69	55.1	0	1	270	0.00	30.084 
21:25	65.6	65.6	65.6	69	55.1	0	1	270	0.00	30.084 
21:30	65.5	65.5	65.5	69	55.1	0	0	---	0.00	30.093 
21:35	65.3	65.3	65.3	69	54.9	0	0	---	0.00	30.093 
21:40	65.3	65.3	65.3	69	54.9	0	0	---	0.00	30.093 
21:45	65.2	65.2	65.2	69	54.8	0	0	---	0.00	30.095 
21:50	65.0	65.0	65.0	69	54.6	0	0	---	0.00	30.095 
21:55	65.0	65.0	65.0	68	54.2	0	0	---	0.00	30.095 
22:00	64.8	64.8	64.8	68	54.0	0	0	---	0.00	30.097 
22:05	64.8	64.8	64.8	68	54.0	0	1	270	0.00	30.097 
22:10	64.8	64.8	64.8	68	54.0	0	0	---	0.00	30.097 
22:15	65.0	65.0	65.0	67	53.8	0	1	270	0.00	30.094 
22:20	65.2	65.2	65.2	67	54.0	0	0	---	0.00	30.094 
22:25	65.2	65.2	65.2	66	53.5	0	0	---	0.00	30.094 
22:30	65.0	65.0	65.0	66	53.4	0	0	---	0.00	30.098 
22:35	64.8	64.8	64.8	67	53.6	0	1	270	0.00	30.098 
22:40	64.7	64.7	64.7	67	53.5	0	0	---	0.00	30.098 
22:45	64.5	64.5	64.5	67	53.3	0	0	---	0.00	30.104 
22:50	64.5	64.5	64.5	67	53.3	0	0	---	0.00	30.104 
22:55	64.3	64.3	64.3	67	53.1	0	0	---	0.00	30.104 
23:00	64.2	64.2	64.2	67	53.0	0	0	---	0.00	30.108 
23:05	64.0	64.0	64.0	68	53.2	0	0	---	0.00	30.108 
23:10	63.9	63.9	63.9	68	53.1	0	0	---	0.00	30.108 
23:15	63.7	63.7	63.7	68	52.9	0	0	---	0.00	30.103 
23:20	63.4	63.4	63.4	69	53.0	0	0	---	0.00	30.103 
23:25	63.4	63.4	63.4	69	53.0	0	0	---	0.00	30.103 
23:30	63.2	63.2	63.2	69	52.9	0	0	---	0.00	30.106 
23:35	63.1	63.1	63.1	69	52.8	0	0	---	0.00	30.106 
23:40	62.9	62.9	62.9	69	52.6	0	0	---	0.00	30.106 
23:45	62.7	62.7	62.7	70	52.8	0	0	---	0.00	30.108 
23:50	62.6	62.6	62.6	70	52.7	0	0	---	0.00	30.108 
23:55	62.6	62.6	62.6	70	52.7	0	1	270	0.00	30.108 

CoCoRaHS
IN-AL-39
A2 Web Hosting
Creative Commons License
GoDaddy
search engine by freefind advanced

loaded 2018-11-19 19:01:37 • last modified 2010-11-18 10:43:29
Privacy PolicyDisclaimer
• wx.awcolley.com is powered by PmWiki v.2002016 •
• all content (unless otherwise noted) © 2018 A W Colley